SBOSBO JER / EGJJ
Speedbird OnlineSpeedbird Online JER / EGJJ

Jersey Airport
23:34 13.5°C

Location Jersey, Jersey
Latitude: 49.20790100097656
Longitude: -2.195509910583496
Local Time 23:34 on 20 May 2024
UTC +1 hours (Europe/Jersey)
METAR EGJJ 202220Z AUTO 04004KT 340V090 9999 NCD 13/10 Q1010
TAF TAF EGJJ 201959Z 2021/2106 03011KT CAVOK PROB30 TEMPO 2021/2100 9999 SCT045TCU PROB30 TEMPO 2100/2103 BKN009
Weather As Of 20 May 2024 23:34
Description Scattered clouds
Wind 11 km/h from North-East (64°)
Cloud Cover 28%
Precipitation Rain: none, Snow: none
Sunrise 05:19
Sunset 20:51
NOTAM 7 active NOTAM
Rotations During the last 90 days there were
353 flights from LHR
1 flights from JER
354 flights to LHR
1 flights to JER
Lounges Executive Lounge , Main Terminal
Web Airport Website | Wikipedia
Codes IATA: JER
ICAO: EGJJ
Altitude 84 Meter / 277 Feet
Distance 304 KM / 189 Miles
from London.
Runways
RunwayLength (m)Surface
081706Asphalt
261706Asphalt
Radio
TypeDescriptionFrequency
APPAPP120.3
ATISINFO112.2
ATISINFO129.725
GNDGND121.9
RDRRDR118.55
TWRTWR119.45
Live ATC



Support Speedbird Online

© 2017-2024 Speedbird Online